DW8791 Weather Reports


Display with metric or nautical units.
time (UTC)temp
F
wind
direction
speed
MPH
gust
MPH
rain 1hr
in
rain 24hr
in
rain mn
in
humidity
%
barometer
mb
20191112104606 44 310 2.0 8.0 0.00 0.13 0.13 93 989.5
20191112104105 44 303 3.0 7.0 0.00 0.13 0.13 94 989.5
20191112103605 43 309 3.0 7.0 0.00 0.13 0.13 94 989.5
20191112103106 43 254 2.0 7.0 0.00 0.13 0.13 94 989.4
20191112101605 42 238 2.0 7.0 0.01 0.13 0.13 93 989.4
20191112101105 42 265 3.0 12.0 0.01 0.13 0.13 93 989.4
20191112100605 41 257 3.0 13.0 0.02 0.13 0.13 93 989.4
20191112100105 41 267 2.0 13.0 0.02 0.13 0.13 93 989.3
20191112094605 41 241 5.0 12.0 0.02 0.13 0.13 92 989.3
20191112094105 41 244 5.0 12.0 0.02 0.13 0.13 92 989.3
20191112093605 41 249 6.0 12.0 0.03 0.13 0.13 92 989.3
20191112093105 41 237 5.0 12.0 0.03 0.13 0.13 92 989.4
20191112091605 42 239 5.0 14.0 0.04 0.12 0.12 92 989.3
20191112091105 42 255 5.0 14.0 0.04 0.12 0.12 92 989.5
20191112090605 42 231 6.0 13.0 0.04 0.11 0.11 91 989.4
20191112090105 42 241 4.0 13.0 0.05 0.11 0.11 91 989.4
20191112084605 42 241 6.0 17.0 0.06 0.10 0.10 91 989.4
20191112084105 42 257 9.0 17.0 0.06 0.10 0.10 91 989.4
20191112083605 42 232 6.0 15.0 0.06 0.09 0.09 91 989.4
20191112083106 42 246 5.0 15.0 0.06 0.09 0.09 91 989.4
20191112081605 42 246 7.0 17.0 0.07 0.08 0.08 90 989.4
20191112081106 42 246 5.0 15.0 0.07 0.08 0.08 90 989.4
20191112080605 42 234 6.0 14.0 0.06 0.07 0.07 90 989.3
20191112080106 42 250 5.0 14.0 0.06 0.06 0.06 90 989.3
20191112074605 43 249 5.0 21.0 0.04 0.05 0.05 89 989.4
20191112074105 43 254 9.0 21.0 0.04 0.05 0.05 88 989.4
20191112073606 43 237 9.0 22.0 0.03 0.04 0.04 88 989.4
20191112073106 43 241 7.0 22.0 0.02 0.03 0.03 87 989.5
20191112071605 44 244 8.0 20.0 0.00 0.02 0.01 86 989.5
20191112071106 44 239 9.0 16.0 0.00 0.02 0.01 85 989.3
20191112070605 44 229 7.0 15.0 0.00 0.03 0.01 85 989.3
20191112070106 44 241 6.0 20.0 0.00 0.03 0.01 85 989.4
20191112064605 44 242 6.0 26.0 0.01 0.04 0.01 86 989.4
20191112064106 43 241 9.0 26.0 0.01 0.04 0.01 87 989.4
20191112063605 43 257 7.0 17.0 0.01 0.04 0.01 87 989.5
20191112063105 43 245 7.0 15.0 0.01 0.05 0.01 87 989.5
20191112061605 42 249 6.0 16.0 0.01 0.06 0.01 88 989.7
20191112061105 42 241 8.0 21.0 0.01 0.06 0.01 87 989.7
20191112060606 42 242 6.0 21.0 0.01 0.06 0.01 87 989.8
20191112060105 42 245 9.0 21.0 0.01 0.06 0.01 87 989.8
20191112054605 42 237 9.0 20.0 0.00 0.06 0.00 87 989.8
20191112054105 42 238 9.0 20.0 0.00 0.06 0.00 87 989.9
20191112053605 42 248 7.0 18.0 0.00 0.06 0.00 87 989.9
20191112053105 42 224 7.0 17.0 0.00 0.06 0.00 87 990.1
20191112051605 42 238 6.0 18.0 0.00 0.07 0.00 89 990.5
20191112051105 42 236 6.0 16.0 0.00 0.07 0.00 89 990.6
20191112050605 41 252 5.0 16.0 0.00 0.07 0.00 88 990.7
20191112050105 41 232 6.0 15.0 0.00 0.08 0.00 88 990.7
20191112044605 41 223 6.0 14.0 0.00 0.09 0.00 88 990.7
20191112044105 41 245 5.0 15.0 0.00 0.09 0.00 88 990.9
20191112043605 41 241 6.0 18.0 0.00 0.09 0.00 88 990.9
20191112043105 41 241 7.0 18.0 0.00 0.10 0.00 88 991.0
20191112041605 41 254 6.0 15.0 0.00 0.12 0.00 88 991.1
20191112041105 41 238 6.0 15.0 0.00 0.12 0.00 88 991.2
20191112040605 42 246 6.0 14.0 0.00 0.12 0.00 88 991.2
20191112040105 41 252 9.0 15.0 0.00 0.12 0.00 88 991.1
20191112034605 42 235 6.0 20.0 0.00 0.13 0.00 87 991.3
20191112034105 42 247 7.0 15.0 0.00 0.13 0.00 87 991.5
20191112033605 42 240 10.0 15.0 0.00 0.13 0.00 86 991.5
20191112033105 42 246 6.0 16.0 0.00 0.13 0.00 86 991.5
20191112031605 42 245 6.0 17.0 0.00 0.14 0.00 86 991.8
20191112031105 42 242 9.0 17.0 0.00 0.14 0.00 86 991.8
20191112030605 42 251 9.0 16.0 0.00 0.15 0.00 86 991.7
20191112030105 42 252 5.0 14.0 0.00 0.15 0.00 87 991.8
20191112024606 42 244 6.0 17.0 0.00 0.16 0.00 86 992.2
20191112024105 42 254 5.0 17.0 0.00 0.17 0.00 86 992.1
20191112023605 42 241 7.0 16.0 0.00 0.17 0.00 86 992.2
20191112023105 42 244 6.0 16.0 0.00 0.17 0.00 86 992.3
20191112021606 43 256 5.0 15.0 0.00 0.18 0.00 86 992.4
20191112021105 43 243 7.0 15.0 0.00 0.18 0.00 86 992.3
20191112020605 43 239 6.0 14.0 0.00 0.19 0.00 85 992.4
20191112020105 43 247 6.0 14.0 0.00 0.20 0.00 85 992.4
20191112014605 43 239 3.0 9.0 0.00 0.20 0.00 84 992.7
20191112014105 43 233 4.0 9.0 0.00 0.20 0.00 84 992.7
20191112013605 43 250 3.0 10.0 0.00 0.21 0.00 83 992.8
20191112013105 44 247 4.0 10.0 0.00 0.21 0.00 83 992.8
20191112011605 43 231 5.0 12.0 0.00 0.22 0.00 83 992.9
20191112011104 43 246 6.0 12.0 0.00 0.23 0.00 83 992.9
20191112010605 43 241 5.0 12.0 0.00 0.23 0.00 83 992.9
20191112010105 43 242 5.0 12.0 0.00 0.24 0.00 84 992.9
20191112004605 43 286 2.0 10.0 0.00 0.24 0.00 84 992.9
20191112004105 43 237 5.0 12.0 0.00 0.24 0.00 84 993.0
20191112003605 43 285 5.0 12.0 0.00 0.24 0.00 84 992.9
20191112003105 43 246 3.0 12.0 0.00 0.24 0.00 84 992.9
20191112001605 43 243 6.0 12.0 0.00 0.24 0.00 85 992.8
20191112001109 43 237 5.0 12.0 0.00 0.24 0.00 85 992.8
20191112000605 43 250 4.0 12.0 0.00 0.24 0.00 85 992.9
20191112000105 43 242 3.0 9.0 0.00 0.24 0.00 86 993.0
20191111234605 43 283 3.0 12.0 0.00 0.24 0.24 86 993.4
20191111234107 43 281 3.0 12.0 0.00 0.24 0.24 86 993.3
20191111233605 42 274 5.0 12.0 0.00 0.24 0.24 87 993.2
20191111233105 42 270 4.0 10.0 0.00 0.24 0.24 87 993.2
20191111231605 42 248 5.0 12.0 0.00 0.24 0.24 88 993.2
20191111231105 42 249 4.0 12.0 0.00 0.24 0.24 88 993.2
20191111230605 42 235 3.0 12.0 0.00 0.24 0.24 87 993.2
20191111230105 42 238 3.0 12.0 0.00 0.24 0.24 87 993.2
20191111224605 42 241 5.0 13.0 0.00 0.24 0.24 86 993.3
20191111224105 42 231 3.0 12.0 0.00 0.24 0.24 86 993.3
20191111223605 43 240 4.0 12.0 0.00 0.24 0.24 86 993.3
20191111223105 43 248 3.0 12.0 0.00 0.24 0.24 86 993.4
20191111221606 43 260 3.0 14.0 0.00 0.24 0.24 86 993.3
20191111221105 43 264 4.0 13.0 0.00 0.24 0.24 87 993.3
20191111220605 43 278 6.0 13.0 0.00 0.24 0.24 87 993.4
20191111220105 43 283 6.0 12.0 0.00 0.24 0.24 87 993.4
20191111214605 43 246 5.0 13.0 0.00 0.24 0.24 87 993.3
20191111214105 43 275 6.0 13.0 0.00 0.24 0.24 87 993.4
20191111213605 43 248 5.0 16.0 0.00 0.24 0.24 86 993.4
20191111213105 43 279 6.0 16.0 0.00 0.24 0.24 86 993.4
20191111211605 43 259 6.0 14.0 0.00 0.24 0.24 87 993.3
20191111211105 43 238 5.0 14.0 0.00 0.24 0.24 87 993.4
20191111210605 43 259 5.0 9.0 0.00 0.24 0.24 87 993.4
20191111210105 43 232 4.0 12.0 0.00 0.24 0.24 87 993.5
20191111204605 43 250 5.0 15.0 0.00 0.24 0.24 86 993.6
20191111204105 43 248 6.0 12.0 0.00 0.24 0.24 86 993.6
20191111203605 43 250 5.0 13.0 0.00 0.24 0.24 86 993.7
20191111203105 43 258 5.0 13.0 0.00 0.24 0.24 86 993.7
20191111201605 43 257 4.0 14.0 0.00 0.24 0.24 85 993.6
20191111201106 43 235 7.0 14.0 0.00 0.24 0.24 85 993.6
20191111200607 43 270 7.0 14.0 0.00 0.24 0.24 85 993.7
20191111200105 43 237 6.0 17.0 0.00 0.24 0.24 85 993.6
20191111194605 43 254 7.0 13.0 0.00 0.24 0.24 85 993.7
20191111194104 43 252 3.0 12.0 0.00 0.24 0.24 85 993.7
20191111193606 43 245 4.0 12.0 0.00 0.24 0.24 85 993.7
20191111193105 43 236 4.0 12.0 0.00 0.24 0.24 85 993.7
20191111191605 43 288 4.0 12.0 0.00 0.24 0.24 84 993.6
20191111191105 43 242 5.0 12.0 0.00 0.24 0.24 84 993.7
20191111190605 44 224 3.0 12.0 0.00 0.24 0.24 84 993.7
20191111190105 44 239 4.0 12.0 0.00 0.24 0.24 84 993.7
20191111184606 44 291 5.0 13.0 0.00 0.24 0.24 83 993.7
20191111184105 44 287 6.0 13.0 0.00 0.24 0.24 83 993.7
20191111183605 44 292 5.0 13.0 0.00 0.24 0.24 84 993.7
20191111183105 44 283 6.0 12.0 0.00 0.24 0.24 84 993.7
20191111181605 44 245 3.0 9.0 0.00 0.24 0.24 84 993.7
20191111181105 44 258 5.0 10.0 0.00 0.24 0.24 83 993.8
20191111180604 44 250 5.0 12.0 0.00 0.24 0.24 83 993.8
20191111180106 44 260 5.0 12.0 0.00 0.24 0.24 83 993.9
20191111174605 45 242 4.0 13.0 0.00 0.24 0.24 82 993.9
20191111174105 45 296 5.0 15.0 0.00 0.24 0.24 82 993.8
20191111173605 45 282 6.0 17.0 0.00 0.24 0.24 82 993.9
20191111173105 45 275 6.0 17.0 0.00 0.24 0.24 82 993.9
20191111171605 45 275 5.0 9.0 0.00 0.24 0.24 83 993.9
20191111171105 45 256 3.0 7.0 0.00 0.24 0.24 83 993.9
20191111170605 45 284 2.0 8.0 0.00 0.24 0.24 83 993.9
20191111170105 45 245 2.0 10.0 0.00 0.24 0.24 82 993.9
20191111164605 45 257 5.0 12.0 0.00 0.24 0.24 83 993.8
20191111164105 45 280 2.0 12.0 0.00 0.24 0.24 84 993.8
20191111163605 45 244 5.0 12.0 0.00 0.24 0.24 84 993.7
20191111163105 45 277 5.0 15.0 0.00 0.24 0.24 83 993.6
20191111161605 46 249 4.0 15.0 0.00 0.24 0.24 83 993.6
20191111161105 46 272 7.0 14.0 0.00 0.24 0.24 82 993.7
20191111160604 46 249 5.0 17.0 0.00 0.24 0.24 82 993.7
20191111160105 46 253 6.0 17.0 0.00 0.24 0.24 82 993.7
20191111154605 46 250 7.0 20.0 0.00 0.24 0.24 80 993.8
20191111154105 46 249 7.0 20.0 0.00 0.24 0.24 79 993.7
20191111153605 46 276 5.0 13.0 0.00 0.24 0.24 79 993.7
20191111153105 47 273 5.0 13.0 0.00 0.24 0.24 78 993.6
20191111151605 47 259 7.0 15.0 0.00 0.24 0.24 78 993.7
20191111151105 47 279 6.0 17.0 0.00 0.24 0.24 79 993.6
20191111150605 47 261 7.0 17.0 0.00 0.24 0.24 79 993.6
20191111150106 48 289 5.0 15.0 0.00 0.24 0.24 78 993.6
20191111144605 48 309 7.0 14.0 0.00 0.24 0.24 78 993.6
20191111144105 48 256 5.0 15.0 0.00 0.24 0.24 78 993.6
20191111143605 48 278 6.0 15.0 0.00 0.24 0.24 78 993.7
20191111143105 48 274 4.0 18.0 0.00 0.24 0.24 77 993.7
20191111141605 48 299 7.0 17.0 0.00 0.24 0.24 76 993.8
20191111141105 48 290 9.0 20.0 0.00 0.24 0.24 77 993.8
20191111140605 48 294 8.0 20.0 0.00 0.24 0.24 77 993.7
20191111140105 48 306 6.0 13.0 0.00 0.24 0.24 78 993.8
20191111134605 48 270 6.0 13.0 0.00 0.24 0.24 78 994.0
20191111134105 48 274 5.0 13.0 0.00 0.24 0.24 78 993.9
20191111133605 48 275 6.0 14.0 0.00 0.24 0.24 78 994.0
20191111133105 48 294 7.0 15.0 0.00 0.24 0.24 78 994.1
20191111131605 49 290 6.0 20.0 0.00 0.24 0.24 78 994.3
20191111131105 48 272 7.0 20.0 0.00 0.24 0.24 78 994.3
20191111130605 48 296 9.0 20.0 0.00 0.24 0.24 79 994.3
20191111130105 48 278 4.0 13.0 0.00 0.24 0.24 80 994.4
20191111124605 48 298 5.0 17.0 0.00 0.24 0.24 80 994.6
20191111124105 48 273 10.0 17.0 0.00 0.24 0.24 80 994.6
20191111123605 48 299 7.0 17.0 0.00 0.24 0.24 81 994.7
20191111123105 47 288 7.0 16.0 0.00 0.24 0.24 83 994.7
20191111121605 47 298 3.0 9.0 0.00 0.24 0.24 86 994.9
20191111121105 47 263 3.0 9.0 0.00 0.24 0.24 86 995.0
20191111120605 47 287 3.0 9.0 0.00 0.24 0.24 86 995.0
20191111120105 46 284 3.0 9.0 0.00 0.24 0.24 86 995.0
20191111114605 46 296 5.0 12.0 0.00 0.24 0.24 86 995.2
20191111114105 46 289 5.0 12.0 0.00 0.24 0.24 87 995.1
20191111113605 46 302 6.0 12.0 0.00 0.24 0.24 87 995.3
20191111113105 46 310 6.0 12.0 0.00 0.24 0.24 87 995.3
20191111111605 46 296 5.0 16.0 0.00 0.24 0.24 90 995.5
20191111111104 45 276 5.0 16.0 0.00 0.24 0.24 90 995.6
20191111110604 45 297 6.0 12.0 0.00 0.24 0.24 91 995.5
20191111110105 45 274 5.0 10.0 0.00 0.24 0.24 92 995.5